createdAt,value
2023-03-29T00:01:54.915Z,12.50
2023-03-29T00:04:23.962Z,13.85
2023-03-29T00:06:53.673Z,12.68
2023-03-29T00:09:24.096Z,12.95
2023-03-29T00:11:53.125Z,12.57
2023-03-29T00:14:24.381Z,15.88
2023-03-29T00:16:53.819Z,13.63
2023-03-29T00:19:22.924Z,13.13
2023-03-29T00:21:51.785Z,13.23
2023-03-29T00:24:21.911Z,12.27
2023-03-29T00:26:50.922Z,40.22
2023-03-29T00:29:19.677Z,10.50
2023-03-29T00:31:54.638Z,13.50
2023-03-29T00:34:25.157Z,12.55
2023-03-29T00:36:59.164Z,13.15
2023-03-29T00:39:28.617Z,14.10
2023-03-29T00:41:58.283Z,14.40
2023-03-29T00:44:55.106Z,12.35
2023-03-29T00:47:29.974Z,13.13
2023-03-29T00:50:06.903Z,11.45
2023-03-29T00:52:40.412Z,13.55
2023-03-29T00:55:14.722Z,12.90
2023-03-29T00:57:47.054Z,13.23
2023-03-29T01:00:21.663Z,12.27
2023-03-29T01:03:00.439Z,24.20
2023-03-29T01:05:35.310Z,11.25
2023-03-29T01:08:19.023Z,10.93
2023-03-29T01:11:02.962Z,11.70
2023-03-29T01:13:52.520Z,12.85
2023-03-29T01:16:22.967Z,12.43
2023-03-29T01:18:53.205Z,17.25
2023-03-29T01:21:42.244Z,12.98
2023-03-29T01:24:52.666Z,10.90
2023-03-29T01:27:32.689Z,10.07
2023-03-29T01:30:09.694Z,9.65
2023-03-29T01:33:08.396Z,12.18
2023-03-29T01:35:43.390Z,12.75
2023-03-29T01:38:35.613Z,10.23
2023-03-29T01:41:04.872Z,12.40
2023-03-29T01:43:49.932Z,12.38
2023-03-29T01:49:33.219Z,10.70
2023-03-29T01:52:16.899Z,9.70
2023-03-29T01:55:16.344Z,13.98
2023-03-29T01:57:48.254Z,11.20
2023-03-29T02:00:25.561Z,10.70
2023-03-29T02:03:02.113Z,10.13
2023-03-29T02:05:32.460Z,7.65
2023-03-29T02:08:06.021Z,7.43
2023-03-29T02:10:36.078Z,7.75
2023-03-29T02:13:06.279Z,6.00
2023-03-29T02:15:35.317Z,7.85
2023-03-29T02:18:05.035Z,5.68
2023-03-29T02:20:39.711Z,8.05
2023-03-29T02:23:24.114Z,8.65
2023-03-29T02:25:54.996Z,9.37
2023-03-29T02:28:26.198Z,9.27
2023-03-29T02:31:09.268Z,6.43
2023-03-29T02:33:53.916Z,7.22
2023-03-29T02:36:39.119Z,8.32
2023-03-29T02:41:41.564Z,7.85
2023-03-29T02:44:14.908Z,7.70
2023-03-29T02:46:44.778Z,6.55
2023-03-29T02:49:14.388Z,6.90
2023-03-29T02:51:44.443Z,6.15
2023-03-29T02:54:19.278Z,7.57
2023-03-29T02:56:59.081Z,7.22
2023-03-29T02:59:30.623Z,8.38
2023-03-29T03:02:01.339Z,7.20
2023-03-29T03:04:30.537Z,8.65
2023-03-29T03:06:59.742Z,10.30
2023-03-29T03:09:29.175Z,7.57
2023-03-29T03:11:58.345Z,8.40
2023-03-29T03:14:29.182Z,8.25
2023-03-29T03:17:00.676Z,9.18
2023-03-29T03:19:31.403Z,16.77
2023-03-29T03:22:00.405Z,9.98
2023-03-29T03:24:29.276Z,9.45
2023-03-29T03:26:58.893Z,9.60
2023-03-29T03:29:29.120Z,9.50
2023-03-29T03:32:00.900Z,8.52
2023-03-29T03:34:52.568Z,9.27
2023-03-29T03:37:24.792Z,8.52
2023-03-29T03:39:54.356Z,12.45
2023-03-29T03:42:23.998Z,11.18
2023-03-29T03:44:52.859Z,11.93
2023-03-29T03:47:47.970Z,10.73
2023-03-29T03:50:37.211Z,12.43
2023-03-29T03:53:08.195Z,10.95
2023-03-29T03:55:57.202Z,13.90
2023-03-29T03:58:31.555Z,15.18
2023-03-29T04:01:01.209Z,18.75
2023-03-29T04:03:40.662Z,17.17
2023-03-29T04:06:13.279Z,17.83
2023-03-29T04:09:00.511Z,22.58
2023-03-29T04:11:37.514Z,18.50
2023-03-29T04:14:07.571Z,17.15
2023-03-29T04:17:04.343Z,23.50
2023-03-29T04:19:59.152Z,24.37
2023-03-29T04:22:30.930Z,21.02
2023-03-29T04:25:00.216Z,16.40
2023-03-29T04:27:49.780Z,27.77
2023-03-29T04:30:38.921Z,17.38
2023-03-29T04:33:16.696Z,31.25
2023-03-29T04:35:50.276Z,30.13
2023-03-29T04:38:23.895Z,23.00
2023-03-29T04:40:56.518Z,20.70
2023-03-29T04:43:35.297Z,27.73
2023-03-29T04:46:27.279Z,28.35
2023-03-29T04:49:14.539Z,20.55
2023-03-29T04:51:47.246Z,25.17
2023-03-29T04:54:19.330Z,25.95
2023-03-29T04:57:09.348Z,30.27
2023-03-29T04:59:56.711Z,27.08
2023-03-29T05:02:48.178Z,26.70
2023-03-29T05:05:17.442Z,26.83
2023-03-29T05:07:48.100Z,37.60
2023-03-29T05:10:20.857Z,28.27
2023-03-29T05:12:54.757Z,50.70
2023-03-29T05:15:24.744Z,44.38
2023-03-29T05:17:54.285Z,34.42
2023-03-29T05:20:23.566Z,44.47
2023-03-29T05:22:53.402Z,35.42
2023-03-29T05:25:45.443Z,34.70
2023-03-29T05:28:14.456Z,51.13
2023-03-29T05:30:43.896Z,41.17
2023-03-29T05:33:21.717Z,54.58
2023-03-29T05:35:50.518Z,46.55
2023-03-29T05:38:19.435Z,39.85
2023-03-29T05:40:48.399Z,41.72
2023-03-29T05:43:37.452Z,50.08
2023-03-29T05:46:06.952Z,39.10
2023-03-29T05:48:37.455Z,38.95
2023-03-29T05:51:06.734Z,39.72
2023-03-29T05:53:36.094Z,28.63
2023-03-29T05:56:05.134Z,32.72
2023-03-29T05:58:34.095Z,38.75
2023-03-29T06:01:05.108Z,33.22
2023-03-29T06:03:54.453Z,24.48
2023-03-29T06:06:27.890Z,21.65
2023-03-29T06:08:57.575Z,22.17
2023-03-29T06:11:33.755Z,20.90
2023-03-29T06:14:05.640Z,18.98
2023-03-29T06:16:39.629Z,26.77
2023-03-29T06:19:10.381Z,31.48
2023-03-29T06:21:42.138Z,24.60
2023-03-29T06:24:14.756Z,27.65
2023-03-29T06:26:48.928Z,30.10
2023-03-29T06:29:18.201Z,28.40
2023-03-29T06:31:48.870Z,26.63
2023-03-29T06:34:38.486Z,27.77
2023-03-29T06:37:29.979Z,27.70
2023-03-29T06:40:11.880Z,18.42
2023-03-29T06:42:44.300Z,15.40
2023-03-29T06:45:39.299Z,18.98
2023-03-29T06:48:15.127Z,18.17
2023-03-29T06:50:44.413Z,12.52
2023-03-29T06:53:16.622Z,9.98
2023-03-29T06:55:53.297Z,14.10
2023-03-29T06:58:41.580Z,12.27
2023-03-29T07:01:29.584Z,9.10
2023-03-29T07:04:10.152Z,11.63
2023-03-29T07:07:12.841Z,12.25
2023-03-29T07:09:41.764Z,10.35
2023-03-29T07:12:39.872Z,10.02
2023-03-29T07:15:10.338Z,12.55
2023-03-29T07:17:59.678Z,13.27
2023-03-29T07:20:29.119Z,11.70
2023-03-29T07:23:12.148Z,13.30
2023-03-29T07:25:41.822Z,9.98
2023-03-29T07:28:11.827Z,12.23
2023-03-29T07:30:41.060Z,14.38
2023-03-29T07:33:19.674Z,9.27
2023-03-29T07:35:56.154Z,22.00
2023-03-29T07:38:25.986Z,11.38
2023-03-29T07:41:08.838Z,13.65
2023-03-29T07:43:46.255Z,10.57
2023-03-29T07:46:18.140Z,15.88
2023-03-29T07:48:47.357Z,10.68
2023-03-29T07:51:17.365Z,11.02
2023-03-29T07:53:50.033Z,13.15
2023-03-29T07:56:45.352Z,11.13
2023-03-29T07:59:21.451Z,14.25
2023-03-29T08:02:03.693Z,14.77
2023-03-29T08:04:37.395Z,20.42
2023-03-29T08:07:22.669Z,12.18
2023-03-29T08:10:08.176Z,10.85
2023-03-29T08:15:28.820Z,15.07
2023-03-29T08:17:57.781Z,9.32
2023-03-29T08:20:28.336Z,9.82
2023-03-29T08:25:51.725Z,11.02
2023-03-29T08:28:20.734Z,8.77
2023-03-29T08:30:53.611Z,9.50
2023-03-29T08:33:23.298Z,10.27
2023-03-29T08:36:12.613Z,10.30
2023-03-29T08:38:41.542Z,11.85
2023-03-29T08:41:44.957Z,10.23
2023-03-29T08:44:16.792Z,13.05
2023-03-29T08:47:12.496Z,10.18
2023-03-29T08:49:49.333Z,12.45
2023-03-29T08:52:43.708Z,20.45
2023-03-29T08:55:44.639Z,19.90
2023-03-29T08:58:43.445Z,28.58
2023-03-29T09:01:12.655Z,19.70
2023-03-29T09:04:12.166Z,19.73
2023-03-29T09:07:03.164Z,18.50
2023-03-29T09:09:39.876Z,12.70
2023-03-29T09:12:47.383Z,59.45
2023-03-29T09:15:41.451Z,35.03
2023-03-29T09:18:44.757Z,45.10
2023-03-29T09:21:31.919Z,27.95
2023-03-29T09:24:27.918Z,16.55
2023-03-29T09:27:18.582Z,13.32
2023-03-29T09:29:57.833Z,21.02
2023-03-29T09:32:55.427Z,21.65
2023-03-29T09:35:45.460Z,15.25
2023-03-29T09:38:16.115Z,14.63
2023-03-29T09:40:56.126Z,12.30
2023-03-29T09:43:38.792Z,36.60
2023-03-29T09:48:48.384Z,16.50
2023-03-29T09:51:18.790Z,12.65
2023-03-29T09:53:48.003Z,14.18
2023-03-29T09:56:35.526Z,19.63
2023-03-29T09:59:14.273Z,14.38
2023-03-29T10:01:48.061Z,24.77
2023-03-29T10:04:19.048Z,33.53
2023-03-29T10:06:55.001Z,32.97
2023-03-29T10:09:25.689Z,40.58
2023-03-29T10:12:04.522Z,60.58
2023-03-29T10:14:34.223Z,9.60
2023-03-29T10:17:08.069Z,10.48
2023-03-29T10:19:37.619Z,33.95
2023-03-29T10:22:18.491Z,23.65
2023-03-29T10:24:55.991Z,52.55
2023-03-29T10:27:32.673Z,31.55
2023-03-29T10:30:09.932Z,44.42
2023-03-29T10:32:40.513Z,34.33
2023-03-29T10:35:18.532Z,33.20
2023-03-29T10:37:55.632Z,29.20
2023-03-29T10:40:27.297Z,40.65
2023-03-29T10:43:00.590Z,42.10
2023-03-29T10:45:38.512Z,20.25
2023-03-29T10:48:12.449Z,30.23
2023-03-29T10:50:42.393Z,11.13
2023-03-29T10:53:36.180Z,14.60
2023-03-29T10:56:30.110Z,6.35
2023-03-29T10:59:09.987Z,2.90
2023-03-29T11:02:19.208Z,10.48
2023-03-29T11:04:59.942Z,13.15
2023-03-29T11:07:51.855Z,21.15
2023-03-29T11:10:45.411Z,16.88
2023-03-29T11:13:21.598Z,12.88
2023-03-29T11:16:13.933Z,13.65
2023-03-29T11:19:28.010Z,4.82
2023-03-29T11:22:26.229Z,8.88
2023-03-29T11:25:03.958Z,25.08
2023-03-29T11:27:32.781Z,46.33
2023-03-29T11:30:26.772Z,38.17
2023-03-29T11:33:09.445Z,32.17
2023-03-29T11:36:17.343Z,55.75
2023-03-29T11:39:06.488Z,30.10
2023-03-29T11:41:40.240Z,56.40
2023-03-29T11:44:10.464Z,44.88
2023-03-29T11:47:01.830Z,40.45
2023-03-29T11:49:44.447Z,18.17
2023-03-29T11:52:45.346Z,25.45
2023-03-29T11:55:17.122Z,26.15
2023-03-29T11:58:20.077Z,64.63
2023-03-29T12:01:17.905Z,43.78
2023-03-29T12:03:49.545Z,25.90
2023-03-29T12:06:29.337Z,27.75
2023-03-29T12:09:56.392Z,51.33
2023-03-29T12:12:33.749Z,167.10
2023-03-29T12:15:08.262Z,108.68
2023-03-29T12:17:47.921Z,76.78
2023-03-29T12:20:24.057Z,56.17
2023-03-29T12:22:56.387Z,57.75
2023-03-29T12:25:31.587Z,42.83
2023-03-29T12:28:17.653Z,62.40
2023-03-29T12:31:02.367Z,64.18
2023-03-29T12:33:37.236Z,74.68
2023-03-29T12:36:48.451Z,37.88
2023-03-29T12:39:41.670Z,58.87
2023-03-29T12:42:30.861Z,36.88
2023-03-29T12:45:31.490Z,21.92
2023-03-29T12:48:02.143Z,33.42
2023-03-29T12:50:48.390Z,26.35
2023-03-29T12:53:42.841Z,11.40
2023-03-29T12:56:22.384Z,35.28
2023-03-29T12:58:57.785Z,31.48
2023-03-29T13:01:36.054Z,68.30
2023-03-29T13:04:20.544Z,61.17
2023-03-29T13:07:04.355Z,47.85
2023-03-29T13:10:00.524Z,41.00
2023-03-29T13:12:46.594Z,21.13
2023-03-29T13:15:18.240Z,18.48
2023-03-29T13:17:59.117Z,37.72
2023-03-29T13:20:38.884Z,55.75
2023-03-29T13:23:28.012Z,16.58
2023-03-29T13:26:09.537Z,12.85
2023-03-29T13:29:05.654Z,18.35
2023-03-29T13:32:08.570Z,14.35
2023-03-29T13:35:11.230Z,16.30
2023-03-29T13:37:57.750Z,13.23
2023-03-29T13:40:35.374Z,10.90
2023-03-29T13:43:28.429Z,12.48
2023-03-29T13:45:58.495Z,9.93
2023-03-29T13:48:30.979Z,12.00
2023-03-29T13:51:01.964Z,22.42
2023-03-29T13:53:33.836Z,39.92
2023-03-29T13:56:03.886Z,34.97
2023-03-29T13:58:47.292Z,61.80
2023-03-29T14:01:30.941Z,45.90
2023-03-29T14:04:00.909Z,34.97
2023-03-29T14:06:37.553Z,28.80
2023-03-29T14:09:09.663Z,33.15
2023-03-29T14:11:39.680Z,27.40
2023-03-29T14:14:11.287Z,51.35
2023-03-29T14:16:42.902Z,35.45
2023-03-29T14:19:31.270Z,7.57
2023-03-29T14:22:08.699Z,50.03
2023-03-29T14:24:48.882Z,8.52
2023-03-29T14:27:18.402Z,10.63
2023-03-29T14:29:49.915Z,7.00
2023-03-29T14:32:21.595Z,7.50
2023-03-29T14:34:51.663Z,6.07
2023-03-29T14:37:29.818Z,3.70
2023-03-29T14:40:00.332Z,6.90
2023-03-29T14:42:30.167Z,4.20
2023-03-29T14:45:10.173Z,7.50
2023-03-29T14:47:41.417Z,19.08
2023-03-29T14:50:25.325Z,11.93
2023-03-29T14:52:54.833Z,34.78
2023-03-29T14:55:24.693Z,27.25
2023-03-29T14:57:56.228Z,19.38
2023-03-29T15:00:32.178Z,20.33
2023-03-29T15:03:03.291Z,39.55
2023-03-29T15:05:41.913Z,35.97
2023-03-29T15:08:24.588Z,49.47
2023-03-29T15:10:53.739Z,20.85
2023-03-29T15:13:25.276Z,13.88
2023-03-29T15:15:58.768Z,25.60
2023-03-29T15:18:42.074Z,12.48
2023-03-29T15:21:14.853Z,14.10
2023-03-29T15:23:52.218Z,36.88
2023-03-29T15:26:39.045Z,31.38
2023-03-29T15:29:10.734Z,17.45
2023-03-29T15:31:42.778Z,13.68
2023-03-29T15:34:14.635Z,14.65
2023-03-29T15:36:47.174Z,13.13
2023-03-29T15:39:18.373Z,18.35
2023-03-29T15:41:50.384Z,6.05
2023-03-29T15:44:27.337Z,8.40
2023-03-29T15:46:58.556Z,30.98
2023-03-29T15:49:28.336Z,6.15
2023-03-29T15:51:57.474Z,5.68
2023-03-29T15:54:26.606Z,8.48
2023-03-29T15:57:02.655Z,6.22
2023-03-29T15:59:37.161Z,5.75
2023-03-29T16:02:06.970Z,7.35
2023-03-29T16:04:36.074Z,7.15
2023-03-29T16:07:11.828Z,12.13
2023-03-29T16:09:41.136Z,6.43
2023-03-29T16:12:10.905Z,9.07
2023-03-29T16:14:42.594Z,12.80
2023-03-29T16:17:13.062Z,12.90
2023-03-29T16:19:42.120Z,11.90
2023-03-29T16:22:11.349Z,5.82
2023-03-29T16:24:40.390Z,26.80
2023-03-29T16:27:09.620Z,11.20
2023-03-29T16:29:38.532Z,15.65
2023-03-29T16:32:07.861Z,20.83
2023-03-29T16:34:36.674Z,13.02
2023-03-29T16:37:07.412Z,26.17
2023-03-29T16:39:38.720Z,21.52
2023-03-29T16:42:12.211Z,17.42
2023-03-29T16:44:41.712Z,17.00
2023-03-29T16:47:13.065Z,9.77
2023-03-29T16:49:45.680Z,22.42
2023-03-29T16:52:14.807Z,28.02
2023-03-29T16:54:44.213Z,11.73
2023-03-29T16:57:13.101Z,22.92
2023-03-29T16:59:45.760Z,16.50
2023-03-29T17:02:17.185Z,15.13
2023-03-29T17:04:46.392Z,10.73
2023-03-29T17:07:16.231Z,46.70
2023-03-29T17:09:46.736Z,9.90
2023-03-29T17:12:16.026Z,6.43
2023-03-29T17:14:45.394Z,18.73
2023-03-29T17:17:14.361Z,23.45
2023-03-29T17:19:43.245Z,6.35
2023-03-29T17:22:12.265Z,7.93
2023-03-29T17:24:41.188Z,6.65
2023-03-29T17:27:09.987Z,11.48
2023-03-29T17:29:39.077Z,6.72
2023-03-29T17:32:08.239Z,8.88
2023-03-29T17:34:37.589Z,5.47
2023-03-29T17:37:07.554Z,10.90
2023-03-29T17:39:38.206Z,19.23
2023-03-29T17:44:31.950Z,4.93
2023-03-29T17:47:03.937Z,5.95
2023-03-29T17:49:32.807Z,6.10
2023-03-29T17:52:01.538Z,15.68
2023-03-29T17:54:30.847Z,8.93
2023-03-29T17:57:00.525Z,16.58
2023-03-29T17:59:29.197Z,10.75
2023-03-29T18:01:58.457Z,54.85
2023-03-29T18:04:27.654Z,182.10
2023-03-29T18:06:56.659Z,237.23
2023-03-29T18:09:30.229Z,414.15
2023-03-29T18:11:59.809Z,586.17
2023-03-29T18:14:28.623Z,95.18
2023-03-29T18:16:57.929Z,547.88
2023-03-29T18:19:27.305Z,272.30
2023-03-29T18:21:57.013Z,145.57
2023-03-29T18:24:25.658Z,394.67
2023-03-29T18:26:54.820Z,375.35
2023-03-29T18:29:24.931Z,655.63
2023-03-29T18:31:54.091Z,498.33
2023-03-29T18:34:23.360Z,245.32
2023-03-29T18:36:54.314Z,372.50
2023-03-29T18:39:23.329Z,388.20
2023-03-29T18:41:53.414Z,73.25
2023-03-29T18:44:23.486Z,41.13
2023-03-29T18:46:55.477Z,56.08
2023-03-29T18:49:25.727Z,23.60
2023-03-29T18:51:55.977Z,59.03
2023-03-29T18:54:24.703Z,72.38
2023-03-29T18:56:53.548Z,13.00
2023-03-29T18:59:22.427Z,8.07
2023-03-29T19:01:55.784Z,12.07
2023-03-29T19:04:26.874Z,11.65
2023-03-29T19:06:56.948Z,12.55
2023-03-29T19:09:25.684Z,17.77
2023-03-29T19:11:54.867Z,10.30
2023-03-29T19:14:26.086Z,13.88
2023-03-29T19:16:55.087Z,6.45
2023-03-29T19:19:27.035Z,7.95
2023-03-29T19:21:59.799Z,17.48
2023-03-29T19:24:29.649Z,8.32
2023-03-29T19:26:59.097Z,7.85
2023-03-29T19:29:28.000Z,5.30
2023-03-29T19:31:57.774Z,1.90
2023-03-29T19:34:27.425Z,4.78
2023-03-29T19:36:56.097Z,4.63
2023-03-29T19:39:25.973Z,3.25
2023-03-29T19:41:57.419Z,5.82
2023-03-29T19:44:26.389Z,2.90
2023-03-29T19:46:55.200Z,19.80
2023-03-29T19:49:24.146Z,3.50
2023-03-29T19:51:57.406Z,4.47
2023-03-29T19:54:27.298Z,4.13
2023-03-29T19:56:58.074Z,3.53
2023-03-29T19:59:28.028Z,3.67
2023-03-29T20:01:57.397Z,4.97
2023-03-29T20:04:26.846Z,3.65
2023-03-29T20:06:55.496Z,5.35
2023-03-29T20:09:24.278Z,4.93
2023-03-29T20:11:53.499Z,4.53
2023-03-29T20:14:22.833Z,4.22
2023-03-29T20:16:52.086Z,3.00
2023-03-29T20:19:30.387Z,3.53
2023-03-29T20:21:59.716Z,3.55
2023-03-29T20:24:28.628Z,3.63
2023-03-29T20:26:58.329Z,4.20
2023-03-29T20:29:27.897Z,6.50
2023-03-29T20:31:59.826Z,7.60
2023-03-29T20:34:29.688Z,8.23
2023-03-29T20:37:01.526Z,5.28
2023-03-29T20:39:32.349Z,11.25
2023-03-29T20:42:01.889Z,24.17
2023-03-29T20:44:33.519Z,3.25
2023-03-29T20:47:04.638Z,14.65
2023-03-29T20:49:41.132Z,10.88
2023-03-29T20:52:18.119Z,5.22
2023-03-29T20:54:47.474Z,4.15
2023-03-29T20:57:19.903Z,4.13
2023-03-29T20:59:49.896Z,4.28
2023-03-29T21:02:22.035Z,7.18
2023-03-29T21:04:52.777Z,5.50
2023-03-29T21:07:22.265Z,9.43
2023-03-29T21:09:51.914Z,5.40
2023-03-29T21:12:24.270Z,3.13
2023-03-29T21:14:53.146Z,31.70
2023-03-29T21:17:22.129Z,4.78
2023-03-29T21:19:50.814Z,10.25
2023-03-29T21:22:19.729Z,2.17
2023-03-29T21:24:48.369Z,2.92
2023-03-29T21:27:20.338Z,2.05
2023-03-29T21:29:50.455Z,7.47
2023-03-29T21:32:22.114Z,2.55
2023-03-29T21:34:51.116Z,11.35
2023-03-29T21:37:19.976Z,4.32
2023-03-29T21:39:48.707Z,2.45
2023-03-29T21:42:17.834Z,7.85
2023-03-29T21:44:46.549Z,3.35
2023-03-29T21:47:15.314Z,2.75
2023-03-29T21:49:43.948Z,3.10
2023-03-29T21:52:14.259Z,9.77
2023-03-29T21:54:43.252Z,7.60
2023-03-29T21:57:12.924Z,1.80
2023-03-29T21:59:41.754Z,2.45
2023-03-29T22:02:10.564Z,3.00
2023-03-29T22:04:39.459Z,66.72
2023-03-29T22:07:09.013Z,3.03
2023-03-29T22:09:38.294Z,3.40
2023-03-29T22:12:07.415Z,38.47
2023-03-29T22:14:36.617Z,4.60
2023-03-29T22:17:06.848Z,4.25
2023-03-29T22:19:40.130Z,3.15
2023-03-29T22:22:14.192Z,3.33
2023-03-29T22:24:43.336Z,8.38
2023-03-29T22:27:13.015Z,7.35
2023-03-29T22:29:41.938Z,4.30
2023-03-29T22:32:11.313Z,4.53
2023-03-29T22:34:40.168Z,48.13
2023-03-29T22:37:08.904Z,4.63
2023-03-29T22:39:42.477Z,34.42
2023-03-29T22:42:12.149Z,18.75
2023-03-29T22:44:41.487Z,23.85
2023-03-29T22:47:10.350Z,16.48
2023-03-29T22:49:39.537Z,23.55
2023-03-29T22:52:08.512Z,20.27
2023-03-29T22:54:37.389Z,17.63
2023-03-29T22:57:06.585Z,13.02
2023-03-29T22:59:36.327Z,15.60
2023-03-29T23:02:05.596Z,8.25
2023-03-29T23:04:34.461Z,9.30
2023-03-29T23:07:03.629Z,15.05
2023-03-29T23:09:32.410Z,43.88
2023-03-29T23:12:02.024Z,19.92
2023-03-29T23:14:30.830Z,15.00
2023-03-29T23:16:59.782Z,111.45
2023-03-29T23:19:29.255Z,14.27
2023-03-29T23:21:58.469Z,21.70
2023-03-29T23:24:27.407Z,24.77
2023-03-29T23:26:56.208Z,19.92
2023-03-29T23:29:28.067Z,26.75
2023-03-29T23:31:57.546Z,118.05
2023-03-29T23:34:26.448Z,96.57
2023-03-29T23:36:55.109Z,54.65
2023-03-29T23:39:24.384Z,64.65
2023-03-29T23:41:53.071Z,42.85
2023-03-29T23:44:22.150Z,32.80
2023-03-29T23:46:51.022Z,35.63
2023-03-29T23:49:23.589Z,24.00
2023-03-29T23:51:53.031Z,68.50
2023-03-29T23:54:21.886Z,31.20
2023-03-29T23:56:50.766Z,25.50
2023-03-29T23:59:19.812Z,49.45
